Time;durP1;ratioP1;P1;durP2;ratioP2;P2;SDS_P1;SDS_P2;PMS_P1;PMS_P2;Temp;Humidity;BMP_temperature;BMP_pressure;BME280_temperature;BME280_humidity;BME280_pressure;Samples;Min_cycle;Max_cycle;Signal;HPM_P1;HPM_P2
2023/03/22 00:02:06;;;;;;;15.70;9.60;;;;;;;11.83;73.47;99211.03;5021729;28;20099;-80
2023/03/22 00:04:33;;;;;;;13.75;8.85;;;;;;;11.84;73.50;99210.91;5023971;28;20069;-81
2023/03/22 00:06:59;;;;;;;11.30;8.40;;;;;;;11.86;73.56;99205.53;5031618;28;20432;-82
2023/03/22 00:09:26;;;;;;;10.82;7.88;;;;;;;11.87;73.37;99212.47;5023659;28;20571;-80
2023/03/22 00:11:53;;;;;;;12.43;8.82;;;;;;;11.88;73.39;99208.88;5032417;28;20417;-80
2023/03/22 00:14:19;;;;;;;14.38;8.77;;;;;;;11.90;73.60;99214.06;5032436;28;20053;-80
2023/03/22 00:16:47;;;;;;;10.80;8.07;;;;;;;11.90;73.34;99209.63;5031524;28;20066;-80
2023/03/22 00:19:16;;;;;;;15.68;8.85;;;;;;;11.94;73.54;99203.19;5031756;28;20128;-79
2023/03/22 00:21:43;;;;;;;12.10;8.05;;;;;;;11.95;73.30;99202.22;5022633;28;20052;-80
2023/03/22 00:24:10;;;;;;;10.85;8.27;;;;;;;11.98;73.29;99202.03;5032421;28;20536;-80
2023/03/22 00:26:36;;;;;;;13.55;8.00;;;;;;;11.99;73.11;99200.22;5030524;28;20053;-80
2023/03/22 00:29:03;;;;;;;16.58;9.07;;;;;;;11.99;72.88;99205.47;5031859;28;20049;-80
2023/03/22 00:31:30;;;;;;;9.43;8.00;;;;;;;12.01;73.09;99194.81;5030599;28;20063;-81
2023/03/22 00:33:56;;;;;;;12.98;8.20;;;;;;;12.01;73.10;99195.69;5014080;28;20068;-81
2023/03/22 00:36:23;;;;;;;12.68;8.25;;;;;;;12.01;72.96;99198.31;5031695;28;20050;-80
2023/03/22 00:38:50;;;;;;;12.82;7.53;;;;;;;12.03;72.93;99199.03;5031495;28;20061;-80
2023/03/22 00:41:20;;;;;;;10.75;7.70;;;;;;;12.03;72.88;99199.03;5031635;28;20103;-80
2023/03/22 00:43:48;;;;;;;12.20;8.25;;;;;;;12.04;72.79;99190.16;5031487;28;20473;-80
2023/03/22 00:46:16;;;;;;;11.07;7.35;;;;;;;12.04;72.75;99182.25;5029927;28;20096;-80
2023/03/22 00:48:43;;;;;;;9.98;7.28;;;;;;;12.05;72.92;99191.00;5021011;28;20050;-80
2023/03/22 00:51:10;;;;;;;15.95;8.02;;;;;;;12.05;72.74;99186.63;5028434;28;20586;-80
2023/03/22 00:53:38;;;;;;;16.17;8.55;;;;;;;12.06;72.66;99183.03;5022842;28;20049;-81
2023/03/22 00:56:12;;;;;;;13.35;6.93;;;;;;;12.06;72.53;99184.81;5031342;28;20422;-81
2023/03/22 00:58:39;;;;;;;14.00;8.13;;;;;;;12.05;72.68;99184.00;5031237;28;20077;-81
2023/03/22 01:01:06;;;;;;;14.05;7.60;;;;;;;12.06;72.57;99177.75;5031493;28;20061;-80
2023/03/22 01:03:33;;;;;;;10.98;7.68;;;;;;;12.06;72.50;99172.47;5031250;28;20108;-80
2023/03/22 01:06:00;;;;;;;11.02;7.20;;;;;;;12.07;72.50;99171.50;5031311;28;20061;-80
2023/03/22 01:08:31;;;;;;;13.18;7.47;;;;;;;12.06;72.40;99166.34;5031135;28;20061;-79
2023/03/22 01:10:59;;;;;;;13.75;7.78;;;;;;;12.05;72.45;99165.53;5031121;28;20433;-81
2023/03/22 01:13:27;;;;;;;14.70;7.75;;;;;;;12.04;72.29;99161.16;5013629;28;20409;-80
2023/03/22 01:15:54;;;;;;;10.68;7.90;;;;;;;12.03;72.32;99162.09;5013333;28;20282;-80
2023/03/22 01:18:21;;;;;;;12.90;7.82;;;;;;;12.03;72.18;99159.47;5030805;28;20080;-80
2023/03/22 01:20:48;;;;;;;13.40;8.18;;;;;;;12.01;72.21;99158.75;5030959;28;20057;-80
2023/03/22 01:23:14;;;;;;;12.85;8.20;;;;;;;11.99;72.12;99155.38;5030985;28;20136;-80
2023/03/22 01:25:41;;;;;;;13.55;7.90;;;;;;;11.98;72.32;99164.25;5030617;28;20500;-81
2023/03/22 01:28:08;;;;;;;12.07;7.53;;;;;;;11.96;72.13;99166.97;5030874;28;20076;-81
2023/03/22 01:30:37;;;;;;;12.35;7.72;;;;;;;11.93;72.19;99155.81;5031028;28;20123;-80
2023/03/22 01:33:06;;;;;;;10.20;7.35;;;;;;;11.92;72.20;99159.44;5030795;28;20095;-79
2023/03/22 01:35:34;;;;;;;12.80;7.50;;;;;;;11.90;72.27;99148.13;5030486;28;20053;-80
2023/03/22 01:38:01;;;;;;;9.95;7.30;;;;;;;11.88;72.13;99148.22;5030570;28;20057;-80
2023/03/22 01:40:28;;;;;;;14.18;7.65;;;;;;;11.88;72.23;99150.03;5030522;28;20061;-81
2023/03/22 01:42:55;;;;;;;12.05;7.43;;;;;;;11.85;72.26;99136.13;5030849;28;20832;-80
2023/03/22 01:45:39;;;;;;;12.35;7.50;;;;;;;11.84;71.79;99141.50;5030440;28;20136;-80
2023/03/22 01:48:12;;;;;;;11.05;7.63;;;;;;;11.83;72.01;99150.38;5030546;28;20060;-80
2023/03/22 01:50:44;;;;;;;9.65;6.32;;;;;;;11.81;72.14;99139.94;5030524;28;20498;-81
2023/03/22 01:53:13;;;;;;;12.13;7.55;;;;;;;11.79;72.09;99133.09;5030992;28;20140;-79
2023/03/22 01:55:41;;;;;;;11.70;7.68;;;;;;;11.80;72.35;99137.41;5012784;28;20156;-81
2023/03/22 01:58:07;;;;;;;11.70;7.72;;;;;;;11.77;72.53;99133.19;5030242;28;20065;-80
2023/03/22 02:00:35;;;;;;;11.32;7.47;;;;;;;11.76;72.47;99131.50;5030562;28;20057;-81
2023/03/22 02:03:04;;;;;;;11.75;7.63;;;;;;;11.77;72.50;99135.81;5029952;28;20049;-80
2023/03/22 02:05:33;;;;;;;11.13;7.05;;;;;;;11.78;72.57;99119.03;5030114;28;20061;-81
2023/03/22 02:08:00;;;;;;;10.98;7.50;;;;;;;11.76;72.39;99120.97;5030218;28;20057;-81
2023/03/22 02:10:27;;;;;;;22.65;9.15;;;;;;;11.78;72.44;99126.13;5030601;28;20069;-81
2023/03/22 02:13:18;;;;;;;14.05;8.00;;;;;;;11.73;71.42;99123.81;5030292;28;20085;-81
2023/03/22 02:15:50;;;;;;;11.60;7.65;;;;;;;11.78;72.52;99121.69;5030069;28;20148;-80
2023/03/22 02:18:51;;;;;;;11.98;8.07;;;;;;;11.72;71.08;99114.22;5029979;28;20080;-80
2023/03/22 02:21:32;;;;;;;12.00;7.95;;;;;;;11.75;72.14;99108.75;5030254;28;20502;-80
2023/03/22 02:24:36;;;;;;;11.32;7.65;;;;;;;11.71;71.50;99116.00;5030073;28;20053;-80
2023/03/22 02:27:31;;;;;;;9.60;7.00;;;;;;;11.71;71.13;99107.28;5030464;28;20065;-80
2023/03/22 02:30:29;;;;;;;11.88;7.65;;;;;;;11.69;71.49;99112.66;5030499;28;20093;-80
2023/03/22 02:33:24;;;;;;;13.32;8.40;;;;;;;11.69;71.75;99107.38;5030370;28;20057;-81
2023/03/22 02:36:04;;;;;;;11.77;8.13;;;;;;;11.67;71.65;99100.53;5030135;28;20063;-81
2023/03/22 02:38:51;;;;;;;13.68;7.88;;;;;;;11.67;71.80;99096.09;5030192;28;20059;-80
2023/03/22 02:41:29;;;;;;;10.85;8.18;;;;;;;11.67;71.89;99093.47;5030038;28;20494;-80
2023/03/22 02:44:12;;;;;;;13.57;8.35;;;;;;;11.70;72.98;99093.25;5031645;28;20060;-81
2023/03/22 02:46:48;;;;;;;12.90;8.32;;;;;;;11.70;72.23;99087.16;5033692;28;20532;-80
2023/03/22 02:49:33;;;;;;;16.70;7.75;;;;;;;11.69;71.63;99090.72;4396888;23;20125;-80
2023/03/22 02:52:11;;;;;;;12.27;7.65;;;;;;;11.72;71.79;99087.88;5012765;28;20092;-80
2023/03/22 02:55:06;;;;;;;14.70;8.40;;;;;;;11.73;71.62;99087.75;4995339;28;20467;-80
2023/03/22 02:57:43;;;;;;;13.32;7.55;;;;;;;11.78;71.78;99074.22;5004891;28;20054;-80
2023/03/22 03:00:12;;;;;;;15.88;7.93;;;;;;;11.81;72.26;99073.19;4993039;28;20054;-80
2023/03/22 03:02:52;;;;;;;13.07;8.05;;;;;;;11.79;71.37;99072.44;4993084;28;20058;-80
2023/03/22 03:05:21;;;;;;;11.90;8.63;;;;;;;11.82;72.21;99074.84;4992826;28;20054;-80
2023/03/22 03:07:52;;;;;;;13.57;8.32;;;;;;;11.82;71.80;99066.94;4991484;28;20097;-79
2023/03/22 03:10:19;;;;;;;11.90;8.00;;;;;;;11.85;72.13;99069.38;4992784;28;20051;-79
2023/03/22 03:12:46;;;;;;;13.57;8.65;;;;;;;11.85;72.15;99070.19;4992938;28;20054;-79
2023/03/22 03:15:18;;;;;;;15.95;8.98;;;;;;;11.85;71.35;99062.28;4992521;28;20078;-80
2023/03/22 03:17:58;;;;;;;14.13;9.15;;;;;;;11.86;71.10;99066.59;4992555;28;20515;-79
2023/03/22 03:20:48;;;;;;;12.55;8.65;;;;;;;11.87;71.14;99056.91;4992586;28;20050;-79
2023/03/22 03:23:38;;;;;;;12.32;8.45;;;;;;;11.91;71.04;99052.22;4992673;28;20078;-79
2023/03/22 03:26:14;;;;;;;15.45;8.43;;;;;;;11.91;71.10;99047.81;4992303;28;20069;-79
2023/03/22 03:29:01;;;;;;;13.45;8.07;;;;;;;11.90;71.00;99048.75;4992274;28;20108;-79
2023/03/22 03:31:37;;;;;;;11.85;8.13;;;;;;;11.94;71.01;99049.38;4975086;28;20097;-79
2023/03/22 03:34:28;;;;;;;16.05;8.73;;;;;;;11.94;70.94;99052.84;4992754;28;20058;-80
2023/03/22 03:37:09;;;;;;;14.98;8.63;;;;;;;11.95;70.86;99051.03;4991902;28;20101;-79
2023/03/22 03:39:41;;;;;;;13.30;8.68;;;;;;;11.97;71.24;99047.34;4975128;28;20116;-80
2023/03/22 03:42:13;;;;;;;15.00;9.10;;;;;;;11.99;71.19;99041.94;4992141;28;20109;-79
2023/03/22 03:44:40;;;;;;;14.95;8.75;;;;;;;12.01;71.87;99042.69;4992541;28;20066;-79
2023/03/22 03:47:08;;;;;;;16.08;9.25;;;;;;;12.01;71.66;99047.97;4991563;28;20839;-79
2023/03/22 03:49:34;;;;;;;11.27;8.23;;;;;;;12.04;71.69;99041.63;4992123;28;20061;-79
2023/03/22 03:52:03;;;;;;;17.30;8.82;;;;;;;12.04;71.42;99041.63;4992119;28;20109;-79
2023/03/22 03:54:29;;;;;;;15.77;9.25;;;;;;;12.06;71.52;99042.34;4991998;28;20133;-79
2023/03/22 03:56:55;;;;;;;12.13;9.10;;;;;;;12.06;71.57;99042.34;4991510;28;20058;-79
2023/03/22 03:59:22;;;;;;;14.55;9.35;;;;;;;12.07;71.45;99044.88;4992296;28;20078;-79
2023/03/22 04:01:51;;;;;;;15.85;9.68;;;;;;;12.09;71.34;99040.34;4991874;28;20066;-79
2023/03/22 04:04:25;;;;;;;15.50;8.95;;;;;;;12.09;71.48;99040.34;4992199;28;20080;-80
2023/03/22 04:06:57;;;;;;;16.48;9.35;;;;;;;12.10;70.88;99038.53;4990777;28;20441;-79
2023/03/22 04:09:30;;;;;;;12.27;9.63;;;;;;;12.10;70.52;99028.00;4992411;28;20062;-79
2023/03/22 04:11:56;;;;;;;15.55;9.50;;;;;;;12.12;71.32;99040.09;4991967;28;20096;-80
2023/03/22 04:14:23;;;;;;;14.50;9.20;;;;;;;12.14;71.33;99026.81;4990709;28;20113;-80
2023/03/22 04:16:50;;;;;;;15.38;9.20;;;;;;;12.16;71.13;99026.69;4973567;28;20060;-80
2023/03/22 04:19:18;;;;;;;13.18;8.98;;;;;;;12.17;71.08;99021.31;4991662;28;20062;-79
2023/03/22 04:21:44;;;;;;;12.95;9.32;;;;;;;12.19;71.03;99015.91;4991495;28;20591;-79
2023/03/22 04:24:11;;;;;;;14.85;8.98;;;;;;;12.19;71.00;99023.81;4991722;28;20058;-80
2023/03/22 04:26:38;;;;;;;17.58;9.38;;;;;;;12.21;70.86;99017.47;4991066;28;20097;-80
2023/03/22 04:29:05;;;;;;;13.90;9.27;;;;;;;12.19;70.59;99019.38;4991377;28;20062;-80
2023/03/22 04:31:34;;;;;;;16.42;9.45;;;;;;;12.20;70.88;99014.94;4974322;28;20132;-80
2023/03/22 04:34:04;;;;;;;13.30;9.48;;;;;;;12.19;70.57;99010.63;4991334;28;20061;-79
2023/03/22 04:36:38;;;;;;;14.00;9.13;;;;;;;12.18;70.30;98998.41;4990177;28;20440;-79
2023/03/22 04:39:08;;;;;;;14.70;9.73;;;;;;;12.16;70.40;99005.59;4991103;28;20059;-79
2023/03/22 04:41:35;;;;;;;14.60;9.82;;;;;;;12.15;70.68;99004.72;4991342;28;20104;-79
2023/03/22 04:44:06;;;;;;;14.27;9.20;;;;;;;12.11;69.79;98998.84;4973779;28;20069;-79
2023/03/22 04:46:35;;;;;;;14.40;10.23;;;;;;;12.11;70.09;98998.00;4990380;28;20105;-79
2023/03/22 04:49:02;;;;;;;13.63;9.75;;;;;;;12.09;70.32;98998.16;4990526;28;20062;-80
2023/03/22 04:51:30;;;;;;;16.23;9.57;;;;;;;12.08;70.42;99004.34;4991415;28;20099;-79
2023/03/22 04:53:57;;;;;;;13.93;9.25;;;;;;;12.06;70.51;99001.00;4973652;28;20050;-79
2023/03/22 04:56:24;;;;;;;12.40;9.27;;;;;;;12.05;70.54;98996.69;4990779;28;20089;-79
2023/03/22 04:58:50;;;;;;;15.55;9.40;;;;;;;12.04;70.52;98996.78;4990410;28;20058;-79
2023/03/22 05:01:17;;;;;;;13.23;9.65;;;;;;;12.02;70.34;98998.69;4990930;28;20603;-79
2023/03/22 05:03:46;;;;;;;12.70;9.60;;;;;;;11.99;70.49;98989.19;4990811;28;20144;-79
2023/03/22 05:06:13;;;;;;;16.42;9.18;;;;;;;11.97;70.52;98991.13;4989941;28;20538;-79
2023/03/22 05:08:39;;;;;;;15.93;9.50;;;;;;;11.95;70.40;98983.31;4990218;28;20116;-79
2023/03/22 05:11:10;;;;;;;12.40;9.25;;;;;;;11.95;70.44;98985.97;4990751;28;20054;-79
2023/03/22 05:13:37;;;;;;;13.82;10.05;;;;;;;11.93;70.46;98981.75;4990706;28;20058;-79
2023/03/22 05:16:04;;;;;;;13.52;9.70;;;;;;;11.92;70.75;98985.38;4990510;28;20113;-79
2023/03/22 05:18:31;;;;;;;14.55;9.73;;;;;;;11.91;70.48;98988.94;4990213;28;20420;-79
2023/03/22 05:21:05;;;;;;;13.80;9.70;;;;;;;11.89;70.45;98983.75;4973268;28;20062;-79
2023/03/22 05:23:31;;;;;;;17.83;9.77;;;;;;;11.89;70.61;98978.50;4990570;28;20050;-79
2023/03/22 05:26:00;;;;;;;14.90;10.07;;;;;;;11.86;70.61;98974.28;4990210;28;20074;-79
2023/03/22 05:28:27;;;;;;;17.63;9.68;;;;;;;11.86;70.64;98976.09;4972965;28;20417;-79
2023/03/22 05:30:53;;;;;;;12.80;9.40;;;;;;;11.83;70.67;98976.34;4990621;28;20062;-79
2023/03/22 05:33:22;;;;;;;17.35;10.05;;;;;;;11.82;70.74;98970.19;4990628;28;20061;-79
2023/03/22 05:35:49;;;;;;;14.60;9.95;;;;;;;11.82;70.68;98975.47;4989936;28;20062;-79
2023/03/22 05:38:16;;;;;;;14.43;9.65;;;;;;;11.81;70.63;98978.25;4989855;28;20085;-80
2023/03/22 05:40:43;;;;;;;14.27;9.68;;;;;;;11.81;70.84;98970.34;4972705;28;20054;-79
2023/03/22 05:43:10;;;;;;;15.10;8.95;;;;;;;11.81;70.88;98976.44;4990269;28;20058;-79
2023/03/22 05:45:36;;;;;;;13.13;9.60;;;;;;;11.82;70.77;98970.19;4989947;28;20422;-79
2023/03/22 05:48:03;;;;;;;19.00;9.63;;;;;;;11.80;70.79;98972.13;4989832;28;20105;-79
2023/03/22 05:50:30;;;;;;;14.27;9.43;;;;;;;11.80;70.77;98969.50;4989734;28;20716;-79
2023/03/22 05:52:57;;;;;;;15.32;9.73;;;;;;;11.82;70.80;98969.38;4990159;28;20058;-79
2023/03/22 05:55:25;;;;;;;14.60;9.35;;;;;;;11.81;70.96;98968.53;4989808;28;20065;-79
2023/03/22 05:57:53;;;;;;;15.85;9.65;;;;;;;11.82;70.87;98970.19;4972624;28;20058;-80
2023/03/22 06:00:20;;;;;;;12.68;8.50;;;;;;;11.82;71.02;98983.38;4972962;28;20552;-79
2023/03/22 06:02:48;;;;;;;12.05;8.77;;;;;;;11.85;70.97;98982.34;4989848;28;21127;-79
2023/03/22 06:05:16;;;;;;;12.80;8.82;;;;;;;11.86;70.94;98976.09;4989820;28;20059;-79
2023/03/22 06:07:43;;;;;;;12.23;8.90;;;;;;;11.87;70.89;98967.25;4989539;28;20129;-80
2023/03/22 06:10:12;;;;;;;13.70;8.93;;;;;;;11.87;70.80;98964.59;4990270;28;20058;-81
2023/03/22 06:12:39;;;;;;;11.75;8.95;;;;;;;11.89;70.95;98964.50;4988622;28;20058;-81
2023/03/22 06:15:06;;;;;;;13.65;8.73;;;;;;;11.93;71.01;98952.75;4989290;28;20527;-81
2023/03/22 06:17:33;;;;;;;14.80;8.80;;;;;;;11.96;70.90;98955.16;4972002;28;20424;-81
2023/03/22 06:19:59;;;;;;;12.73;8.38;;;;;;;11.97;71.04;98956.84;4993071;28;20504;-81
2023/03/22 06:22:29;;;;;;;15.05;8.45;;;;;;;11.98;70.74;98956.72;4993559;28;20058;-81
2023/03/22 06:24:57;;;;;;;11.93;8.40;;;;;;;12.02;70.82;98949.41;4992600;28;20574;-81
2023/03/22 06:27:23;;;;;;;9.90;8.10;;;;;;;12.03;70.71;98948.44;4993428;28;20061;-81
2023/03/22 06:29:53;;;;;;;12.90;8.57;;;;;;;12.06;70.71;98953.53;4976496;28;20509;-81
2023/03/22 06:32:22;;;;;;;12.57;8.13;;;;;;;12.06;70.70;98940.34;4993517;28;20062;-81
2023/03/22 06:34:54;;;;;;;11.73;8.18;;;;;;;12.06;70.17;98942.97;4976131;28;20058;-81
2023/03/22 06:37:22;;;;;;;14.57;8.15;;;;;;;12.10;70.46;98949.69;4993581;28;20107;-81
2023/03/22 06:39:50;;;;;;;14.20;9.10;;;;;;;12.10;70.49;98933.03;4992527;28;20058;-81
2023/03/22 06:42:16;;;;;;;14.80;8.30;;;;;;;12.10;70.38;98941.78;4976160;28;20413;-81
2023/03/22 06:44:43;;;;;;;12.90;7.47;;;;;;;12.14;70.33;98946.84;4993618;28;20059;-81
2023/03/22 06:47:10;;;;;;;11.02;7.68;;;;;;;12.12;70.28;98942.50;4993208;28;20062;-81
2023/03/22 06:49:37;;;;;;;11.63;7.72;;;;;;;12.14;70.47;98934.47;4993032;28;20055;-81
2023/03/22 06:52:04;;;;;;;10.15;7.45;;;;;;;12.15;70.32;98938.78;4976262;28;20112;-80
2023/03/22 06:54:31;;;;;;;13.00;7.07;;;;;;;12.17;70.27;98920.19;4975996;28;20146;-81
2023/03/22 06:56:57;;;;;;;8.63;6.97;;;;;;;12.19;70.18;98924.38;4992761;28;20054;-81
2023/03/22 06:59:24;;;;;;;9.98;7.05;;;;;;;12.22;70.21;98925.94;4993142;28;20062;-80
2023/03/22 07:01:50;;;;;;;11.38;7.25;;;;;;;12.24;70.05;98926.69;4975826;28;20085;-81
2023/03/22 07:04:16;;;;;;;11.27;6.72;;;;;;;12.27;70.06;98921.19;4992833;28;20162;-81
2023/03/22 07:06:43;;;;;;;11.73;6.47;;;;;;;12.28;69.99;98936.03;4992501;28;20091;-81
2023/03/22 07:09:09;;;;;;;11.63;6.55;;;;;;;12.29;69.66;98913.16;4993325;28;20054;-80
2023/03/22 07:11:36;;;;;;;15.60;7.22;;;;;;;12.30;69.49;98933.28;4993141;28;20095;-81
2023/03/22 07:14:02;;;;;;;13.20;6.55;;;;;;;12.28;69.36;98917.56;4975579;28;20058;-81
2023/03/22 07:16:29;;;;;;;12.27;6.53;;;;;;;12.30;69.00;98926.19;4975384;28;20069;-81
2023/03/22 07:18:56;;;;;;;8.70;5.93;;;;;;;12.31;69.06;98925.25;4975043;28;20920;-81
2023/03/22 07:21:22;;;;;;;11.70;5.75;;;;;;;12.30;69.18;98923.56;4991445;28;20066;-81
2023/03/22 07:23:49;;;;;;;12.25;6.00;;;;;;;12.33;69.04;98912.78;4975356;28;20061;-81
2023/03/22 07:26:15;;;;;;;9.98;5.68;;;;;;;12.33;68.97;98909.28;4992313;28;20472;-81
2023/03/22 07:28:43;;;;;;;12.52;6.43;;;;;;;12.32;69.04;98912.88;4992308;28;20054;-80
2023/03/22 07:31:11;;;;;;;13.38;5.30;;;;;;;12.35;68.98;98915.28;4991004;28;20085;-81
2023/03/22 07:33:38;;;;;;;8.85;5.55;;;;;;;12.36;69.07;98917.81;4992525;28;20501;-81
2023/03/22 07:36:06;;;;;;;9.95;5.63;;;;;;;12.38;69.31;98913.25;4992264;28;20057;-81
2023/03/22 07:38:34;;;;;;;7.15;5.05;;;;;;;12.45;69.23;98923.34;4974975;28;20069;-81
2023/03/22 07:41:00;;;;;;;14.57;5.60;;;;;;;12.51;69.41;98922.84;4974910;28;20066;-81
2023/03/22 07:43:27;;;;;;;9.48;5.00;;;;;;;12.53;68.94;98926.22;4992421;28;20054;-81
2023/03/22 07:45:53;;;;;;;10.27;5.68;;;;;;;12.54;68.45;98919.97;4991779;28;20058;-81
2023/03/22 07:48:21;;;;;;;10.13;5.22;;;;;;;12.55;68.37;98920.78;4974280;28;20066;-81
2023/03/22 07:50:49;;;;;;;8.93;4.80;;;;;;;12.60;68.75;98922.13;4974706;28;20066;-81
2023/03/22 07:53:15;;;;;;;11.70;5.05;;;;;;;12.61;68.78;98918.53;4992486;28;20054;-81
2023/03/22 07:55:41;;;;;;;10.88;4.57;;;;;;;12.63;68.67;98911.31;4991899;28;20065;-80
2023/03/22 07:58:08;;;;;;;7.88;4.43;;;;;;;12.66;68.59;98914.66;4991923;28;20452;-81
2023/03/22 08:00:35;;;;;;;8.52;4.38;;;;;;;12.71;68.41;98917.81;4992048;28;20073;-81
2023/03/22 08:03:01;;;;;;;10.57;4.55;;;;;;;12.75;68.45;98913.97;4992242;28;20113;-81
2023/03/22 08:05:28;;;;;;;9.70;4.70;;;;;;;12.75;67.82;98903.41;4991824;28;20090;-81
2023/03/22 08:07:55;;;;;;;8.40;3.97;;;;;;;12.81;68.00;98913.44;4991270;28;20520;-81
2023/03/22 08:10:22;;;;;;;10.82;4.57;;;;;;;12.85;67.80;98904.31;4974754;28;20061;-81
2023/03/22 08:12:48;;;;;;;8.40;3.70;;;;;;;12.90;67.83;98901.31;4974498;28;20059;-81
2023/03/22 08:15:15;;;;;;;9.23;3.72;;;;;;;12.94;67.90;98904.53;4974469;28;20064;-81
2023/03/22 08:17:41;;;;;;;12.63;4.35;;;;;;;12.97;67.65;98907.78;4973651;28;20055;-81
2023/03/22 08:20:08;;;;;;;6.95;3.40;;;;;;;13.01;67.66;98908.38;4974562;28;20085;-81
2023/03/22 08:22:35;;;;;;;12.18;4.18;;;;;;;13.08;67.88;98908.72;4992045;28;20054;-81
2023/03/22 08:25:03;;;;;;;9.38;3.80;;;;;;;13.14;67.56;98901.13;4991231;28;20074;-81
2023/03/22 08:27:30;;;;;;;9.95;3.63;;;;;;;13.21;66.52;98922.59;4973584;28;20062;-81
2023/03/22 08:29:57;;;;;;;11.98;3.90;;;;;;;13.27;66.67;98916.81;4990332;28;20087;-81
2023/03/22 08:32:27;;;;;;;8.45;3.10;;;;;;;13.36;66.10;98912.59;4991551;28;20065;-83
2023/03/22 08:34:53;;;;;;;7.63;3.85;;;;;;;13.43;66.23;98911.09;4991664;28;20058;-80
2023/03/22 08:37:20;;;;;;;11.35;3.88;;;;;;;13.55;66.44;98911.94;4991537;28;20520;-81
2023/03/22 08:39:46;;;;;;;12.32;4.15;;;;;;;13.61;65.82;98918.50;4991954;28;20069;-81
2023/03/22 08:42:13;;;;;;;10.32;3.75;;;;;;;13.66;65.31;98918.97;4991048;28;20138;-82
2023/03/22 08:44:39;;;;;;;9.85;4.35;;;;;;;13.70;64.51;98929.25;4992140;28;20054;-81
2023/03/22 08:47:06;;;;;;;10.70;4.78;;;;;;;13.72;64.16;98922.06;4991542;28;20091;-82
2023/03/22 08:54:41;;;;;;;10.10;4.13;;;;;;;13.71;63.33;98920.38;5011073;28;20061;-81
2023/03/22 08:57:09;;;;;;;7.93;4.13;;;;;;;13.70;63.10;98902.81;5011865;28;20053;-80
2023/03/22 08:59:36;;;;;;;11.30;4.13;;;;;;;13.71;63.60;98913.28;5011273;28;20058;-81
2023/03/22 09:02:44;;;;;;;9.82;4.55;;;;;;;13.70;60.97;98894.88;5011684;28;20058;-81
2023/03/22 09:05:47;;;;;;;9.07;4.32;;;;;;;13.81;63.41;98913.34;5002701;28;20054;-82
2023/03/22 09:08:14;;;;;;;15.00;4.20;;;;;;;13.85;63.11;98904.19;4999630;28;20463;-81
2023/03/22 09:10:50;;;;;;;9.13;4.10;;;;;;;13.87;62.55;98907.53;5012039;28;20084;-82
2023/03/22 09:13:20;;;;;;;12.75;4.47;;;;;;;13.90;62.54;98915.22;5011838;28;20054;-79
2023/03/22 09:15:53;;;;;;;7.25;3.65;;;;;;;13.92;61.71;98910.66;5011260;28;20065;-81
2023/03/22 09:18:40;;;;;;;13.40;3.80;;;;;;;13.93;61.83;98903.53;5011839;28;20050;-78
2023/03/22 09:21:29;;;;;;;6.97;3.25;;;;;;;13.99;61.53;98902.16;5001502;28;20053;-80
2023/03/22 09:23:56;;;;;;;8.75;3.78;;;;;;;14.02;61.77;98896.63;5011704;28;20140;-80
2023/03/22 09:26:24;;;;;;;8.82;3.50;;;;;;;14.06;62.58;98898.03;4993961;28;20414;-80
2023/03/22 09:28:51;;;;;;;9.60;3.50;;;;;;;14.05;61.80;98909.56;5011399;28;20068;-80
2023/03/22 09:31:30;;;;;;;9.32;3.45;;;;;;;14.02;60.63;98908.03;5011897;28;20145;-80
2023/03/22 09:33:57;;;;;;;5.43;2.75;;;;;;;14.03;60.75;98915.03;5013271;28;20061;-79
2023/03/22 09:36:42;;;;;;;8.73;3.25;;;;;;;13.97;58.76;98896.19;4996433;28;20050;-79
2023/03/22 09:39:22;;;;;;;7.88;2.40;;;;;;;14.05;61.66;98891.06;5007482;28;20054;-78
2023/03/22 09:46:05;;;;;;;4.32;2.00;;;;;;;14.08;58.79;98893.44;5014483;28;20073;-79
2023/03/22 09:48:40;;;;;;;12.25;2.38;;;;;;;14.13;57.00;98903.66;5013537;28;20113;-79
2023/03/22 09:51:22;;;;;;;7.50;2.15;;;;;;;14.12;56.40;98915.19;5009884;28;20057;-80
2023/03/22 09:53:49;;;;;;;6.63;1.83;;;;;;;14.24;60.08;98910.66;5011834;28;20058;-80
2023/03/22 09:56:28;;;;;;;5.88;1.85;;;;;;;14.25;56.99;98901.75;5010754;28;20529;-79
2023/03/22 09:59:10;;;;;;;5.22;2.00;;;;;;;14.31;59.85;98911.78;5010656;28;20052;-80
2023/03/22 10:01:58;;;;;;;6.15;2.15;;;;;;;14.30;57.55;98910.13;5010727;28;20064;-79
2023/03/22 10:04:39;;;;;;;5.38;2.00;;;;;;;14.39;59.11;98903.19;4993466;28;20140;-80
2023/03/22 10:07:16;;;;;;;10.48;1.90;;;;;;;14.42;60.03;98884.38;5009127;28;20050;-78
2023/03/22 10:10:00;;;;;;;7.82;1.90;;;;;;;14.40;56.70;98889.00;5011000;28;20057;-79
2023/03/22 10:12:33;;;;;;;;;;;;;;;14.41;53.89;98888.84;5011110;28;20049;-79
2023/03/22 10:15:12;;;;;;;6.38;2.03;;;;;;;14.48;58.31;98894.44;5010439;28;19925;-79
2023/03/22 10:17:45;;;;;;;7.65;1.70;;;;;;;14.45;56.74;98886.78;5010709;28;20085;-80
2023/03/22 10:20:30;;;;;;;8.45;2.05;;;;;;;14.42;55.59;98898.47;5010741;28;20161;-79
2023/03/22 10:23:02;;;;;;;9.70;1.70;;;;;;;14.40;55.58;98905.72;5010681;28;20112;-79
2023/03/22 10:25:37;;;;;;;4.28;1.30;;;;;;;14.41;57.00;98895.94;5010412;28;20461;-79
2023/03/22 10:28:33;;;;;;;5.25;1.63;;;;;;;14.36;55.98;98880.47;5010218;28;20057;-79
2023/03/22 10:31:00;;;;;;;6.68;1.42;;;;;;;14.43;58.88;98886.91;4979952;28;20054;-79
2023/03/22 10:33:49;;;;;;;6.80;1.70;;;;;;;14.42;57.51;98876.44;5010531;28;20485;-80
2023/03/22 10:36:19;;;;;;;7.10;2.40;;;;;;;14.50;58.78;98878.44;4992773;28;20499;-79
2023/03/22 10:38:49;;;;;;;8.30;2.72;;;;;;;14.54;58.60;98890.44;5010224;28;20104;-80
2023/03/22 10:41:18;;;;;;;8.45;2.15;;;;;;;14.58;58.00;98866.19;5010544;28;20096;-80
2023/03/22 10:43:55;;;;;;;5.18;1.73;;;;;;;14.64;58.13;98880.69;5010229;28;20104;-79
2023/03/22 10:46:26;;;;;;;10.13;2.20;;;;;;;14.71;58.26;98881.00;4992548;28;20054;-78
2023/03/22 10:48:59;;;;;;;7.70;2.10;;;;;;;14.76;57.21;98886.75;5010167;28;20057;-78
2023/03/22 10:51:35;;;;;;;10.20;2.45;;;;;;;14.76;55.79;98878.78;5010527;28;20054;-78
2023/03/22 10:54:04;;;;;;;5.22;1.58;;;;;;;14.83;58.40;98860.53;5010713;28;20085;-79
2023/03/22 10:56:31;;;;;;;4.90;1.85;;;;;;;14.88;58.25;98881.34;4992870;28;20057;-78
2023/03/22 10:58:58;;;;;;;10.95;2.50;;;;;;;14.91;58.28;98879.25;5010350;28;20050;-79
2023/03/22 11:01:27;;;;;;;6.57;2.30;;;;;;;14.93;57.03;98892.34;4992895;28;20089;-79
2023/03/22 11:03:58;;;;;;;11.15;2.30;;;;;;;14.96;56.44;98877.00;4992643;28;20054;-79
2023/03/22 11:06:34;;;;;;;11.80;2.80;;;;;;;15.07;58.51;98880.53;5013621;28;20483;-79
2023/03/22 11:09:15;;;;;;;5.60;1.95;;;;;;;15.17;57.19;98886.66;5013643;28;20552;-78
2023/03/22 11:11:59;;;;;;;5.15;1.92;;;;;;;15.29;56.55;98890.00;5013909;28;20111;-78
2023/03/22 11:14:36;;;;;;;8.07;2.30;;;;;;;15.40;56.67;98896.16;5013648;28;20093;-78
2023/03/22 11:17:05;;;;;;;8.80;2.65;;;;;;;15.42;55.22;98899.50;5013313;28;20085;-79
2023/03/22 11:19:33;;;;;;;7.75;2.53;;;;;;;15.43;56.13;98891.41;5013669;28;20049;-79
2023/03/22 11:22:03;;;;;;;9.25;2.05;;;;;;;15.40;55.63;98888.22;5013460;28;20498;-78
2023/03/22 11:24:32;;;;;;;6.80;2.25;;;;;;;15.37;56.22;98884.03;4995816;28;20274;-77
2023/03/22 11:27:26;;;;;;;9.63;2.20;;;;;;;15.36;56.22;98877.03;5012795;28;20062;-80
2023/03/22 11:29:59;;;;;;;8.82;2.75;;;;;;;15.32;55.32;98867.66;5013114;28;20073;-79
2023/03/22 11:32:34;;;;;;;11.13;2.40;;;;;;;15.28;55.24;98890.16;5013202;28;20813;-78
2023/03/22 11:35:11;;;;;;;8.93;3.00;;;;;;;15.24;54.96;98879.84;5012911;28;20054;-78
2023/03/22 11:37:46;;;;;;;9.88;2.58;;;;;;;15.18;54.75;98888.31;5012748;28;20077;-79
2023/03/22 11:40:34;;;;;;;8.40;2.63;;;;;;;15.13;54.21;98885.25;5013336;28;20060;-80
2023/03/22 11:43:20;;;;;;;7.88;2.20;;;;;;;15.11;55.43;98892.53;5013216;28;20450;-78
2023/03/22 11:45:50;;;;;;;12.60;2.42;;;;;;;15.08;55.36;98911.34;5012466;28;20666;-79
2023/03/22 11:48:20;;;;;;;10.00;2.80;;;;;;;15.05;55.70;98882.47;5012602;28;20120;-79
2023/03/22 11:50:47;;;;;;;6.90;2.22;;;;;;;15.03;55.89;98881.78;5013098;28;20538;-79
2023/03/22 11:53:16;;;;;;;7.90;2.63;;;;;;;14.96;54.59;98869.06;5013250;28;20042;-78
2023/03/22 11:55:45;;;;;;;6.30;2.00;;;;;;;14.95;55.49;98875.34;5012557;28;20560;-79